Time;durP1;ratioP1;P1;durP2;ratioP2;P2;SDS_P1;SDS_P2;PMS_P1;PMS_P2;Temp;Humidity;BMP_temperature;BMP_pressure;BME280_temperature;BME280_humidity;BME280_pressure;Samples;Min_cycle;Max_cycle;Signal;HPM_P1;HPM_P2
2022/05/09 00:01:36;;;;;;;7.50;6.73;;;12.90;99.90;;;;;;5073948;28;20295;-58
2022/05/09 00:04:05;;;;;;;7.37;6.67;;;12.90;99.90;;;;;;5074428;28;20247;-58
2022/05/09 00:06:32;;;;;;;9.80;6.93;;;12.80;99.90;;;;;;5074414;28;20622;-59
2022/05/09 00:08:59;;;;;;;7.57;6.80;;;12.70;99.90;;;;;;5073869;28;20258;-57
2022/05/09 00:11:25;;;;;;;8.13;7.07;;;12.70;99.90;;;;;;5073493;28;20209;-57
2022/05/09 00:13:53;;;;;;;7.77;6.97;;;12.70;99.90;;;;;;5073449;28;20773;-58
2022/05/09 00:16:20;;;;;;;8.07;7.27;;;12.60;99.90;;;;;;5073377;28;20212;-58
2022/05/09 00:18:47;;;;;;;7.47;6.77;;;12.60;99.90;;;;;;5073461;28;20205;-58
2022/05/09 00:21:15;;;;;;;7.73;6.97;;;12.60;99.90;;;;;;5073213;28;20213;-57
2022/05/09 00:23:42;;;;;;;9.07;7.53;;;12.60;99.90;;;;;;5073899;28;20234;-58
2022/05/09 00:26:09;;;;;;;7.83;7.03;;;12.60;99.90;;;;;;5073435;28;20619;-57
2022/05/09 00:28:36;;;;;;;8.23;7.23;;;12.60;99.90;;;;;;5073588;28;20209;-57
2022/05/09 00:31:04;;;;;;;9.33;7.23;;;12.60;99.90;;;;;;5073256;28;20208;-58
2022/05/09 00:33:31;;;;;;;7.97;7.17;;;12.60;99.90;;;;;;5073632;28;20212;-58
2022/05/09 00:35:58;;;;;;;7.17;6.47;;;12.60;99.90;;;;;;5073323;28;20298;-57
2022/05/09 00:38:28;;;;;;;8.43;7.60;;;12.60;99.90;;;;;;5073388;28;20208;-58
2022/05/09 00:43:40;;;;;;;8.37;7.47;;;12.60;99.90;;;;;;5072797;28;20278;-58
2022/05/09 00:46:08;;;;;;;8.07;7.30;;;12.60;99.90;;;;;;5072706;28;20201;-58
2022/05/09 00:48:35;;;;;;;8.67;7.50;;;12.60;99.90;;;;;;5072814;28;20215;-59
2022/05/09 00:51:03;;;;;;;7.87;7.07;;;12.50;99.90;;;;;;5072586;28;20291;-58
2022/05/09 00:53:33;;;;;;;8.67;7.23;;;12.60;99.90;;;;;;5072728;28;20209;-58
2022/05/09 00:56:05;;;;;;;7.70;6.87;;;12.60;99.90;;;;;;5072376;28;20225;-57
2022/05/09 00:58:38;;;;;;;8.77;6.57;;;12.50;99.90;;;;;;5072881;28;20225;-58
2022/05/09 01:01:05;;;;;;;8.80;6.90;;;12.50;99.90;;;;;;5073314;28;20232;-57
2022/05/09 01:03:37;;;;;;;9.23;7.60;;;12.50;99.90;;;;;;5072804;28;20618;-58
2022/05/09 01:06:04;;;;;;;8.63;7.60;;;12.40;99.90;;;;;;5071812;28;20254;-57
2022/05/09 01:08:33;;;;;;;7.57;6.87;;;12.40;99.90;;;;;;5072458;28;20308;-57
2022/05/09 01:11:03;;;;;;;8.40;7.47;;;12.30;99.90;;;;;;5072177;28;20209;-59
2022/05/09 01:13:33;;;;;;;8.10;7.33;;;12.20;99.90;;;;;;5072442;28;20201;-59
2022/05/09 01:16:01;;;;;;;7.53;6.83;;;12.20;99.90;;;;;;5072584;28;20225;-58
2022/05/09 01:18:28;;;;;;;8.00;7.20;;;12.10;99.90;;;;;;5072880;28;20227;-58
2022/05/09 01:20:56;;;;;;;8.07;7.23;;;12.10;99.90;;;;;;5072376;28;20216;-57
2022/05/09 01:23:24;;;;;;;7.57;6.80;;;12.00;99.90;;;;;;5072779;28;20254;-58
2022/05/09 01:25:52;;;;;;;8.00;7.23;;;12.00;99.90;;;;;;5072047;28;20225;-58
2022/05/09 01:28:19;;;;;;;8.87;7.17;;;11.90;99.90;;;;;;5072458;28;20244;-58
2022/05/09 01:30:54;;;;;;;7.43;6.70;;;11.90;99.90;;;;;;5072344;28;20212;-57
2022/05/09 01:33:26;;;;;;;7.83;7.03;;;11.80;99.90;;;;;;5072007;28;20243;-58
2022/05/09 01:35:55;;;;;;;8.50;7.60;;;11.80;99.90;;;;;;5072123;28;20228;-58
2022/05/09 01:38:29;;;;;;;9.33;7.93;;;11.80;99.90;;;;;;5072086;28;20204;-59
2022/05/09 01:40:56;;;;;;;10.57;7.20;;;11.80;99.90;;;;;;5071960;28;20607;-56
2022/05/09 01:43:30;;;;;;;8.97;7.47;;;11.70;99.90;;;;;;5072075;28;20205;-57
2022/05/09 01:45:57;;;;;;;8.33;7.53;;;11.70;99.90;;;;;;5072323;28;20656;-56
2022/05/09 01:51:08;;;;;;;9.37;7.53;;;11.70;99.90;;;;;;5071848;28;20243;-57
2022/05/09 01:53:36;;;;;;;10.47;7.73;;;11.60;99.90;;;;;;5072115;28;20212;-56
2022/05/09 01:56:03;;;;;;;8.20;7.40;;;11.60;99.90;;;;;;5071916;28;20229;-56
2022/05/09 01:58:30;;;;;;;8.07;7.33;;;11.60;99.90;;;;;;5072105;28;20270;-56
2022/05/09 02:00:57;;;;;;;9.73;7.90;;;11.60;99.90;;;;;;5071591;28;20299;-57
2022/05/09 02:03:23;;;;;;;8.67;7.87;;;11.50;99.90;;;;;;5071690;28;20209;-57
2022/05/09 02:05:50;;;;;;;8.13;7.43;;;11.50;99.90;;;;;;5068566;22;20238;-62
2022/05/09 02:08:17;;;;;;;9.03;8.13;;;11.50;99.90;;;;;;5048466;28;20613;-63
2022/05/09 02:10:45;;;;;;;8.43;7.63;;;11.50;99.90;;;;;;5051548;28;20575;-62
2022/05/09 02:13:12;;;;;;;8.83;7.90;;;11.40;99.90;;;;;;5051342;28;20580;-62
2022/05/09 02:15:38;;;;;;;8.00;7.30;;;11.40;99.90;;;;;;5051339;28;20229;-62
2022/05/09 02:18:05;;;;;;;8.33;7.60;;;11.40;99.90;;;;;;5054022;28;20209;-62
2022/05/09 02:20:32;;;;;;;8.37;7.57;;;11.50;99.90;;;;;;5055656;28;20307;-62
2022/05/09 02:22:58;;;;;;;8.83;7.67;;;11.50;99.90;;;;;;5055358;28;20271;-63
2022/05/09 02:25:29;;;;;;;9.00;7.93;;;11.50;99.90;;;;;;5055219;28;20221;-62
2022/05/09 02:27:58;;;;;;;8.50;7.70;;;11.40;99.90;;;;;;5055421;28;20232;-62
2022/05/09 02:30:25;;;;;;;8.07;7.27;;;11.40;99.90;;;;;;5055259;28;20214;-62
2022/05/09 02:32:52;;;;;;;8.43;7.53;;;11.30;99.90;;;;;;5055324;28;20633;-63
2022/05/09 02:35:20;;;;;;;7.80;6.93;;;11.40;99.90;;;;;;5055299;28;20348;-63
2022/05/09 02:37:47;;;;;;;8.37;7.33;;;11.40;99.90;;;;;;5055303;28;20206;-63
2022/05/09 02:40:14;;;;;;;8.43;7.40;;;11.40;99.90;;;;;;5055194;28;20205;-63
2022/05/09 02:42:40;;;;;;;8.00;7.20;;;11.40;99.90;;;;;;5054830;28;20704;-63
2022/05/09 02:45:10;;;;;;;7.13;6.53;;;11.50;99.90;;;;;;5054770;28;20232;-63
2022/05/09 02:47:37;;;;;;;8.07;6.50;;;11.50;99.90;;;;;;5054919;28;20213;-63
2022/05/09 02:50:04;;;;;;;8.23;6.90;;;11.50;99.90;;;;;;5054949;28;20214;-63
2022/05/09 02:52:31;;;;;;;7.07;6.37;;;11.50;99.90;;;;;;5054753;28;20262;-64
2022/05/09 02:54:58;;;;;;;8.63;7.00;;;11.50;99.90;;;;;;5054658;28;20230;-63
2022/05/09 02:57:24;;;;;;;8.93;7.60;;;11.40;99.90;;;;;;5054720;28;20205;-63
2022/05/09 02:59:51;;;;;;;8.63;7.73;;;11.40;99.90;;;;;;5054900;28;20215;-63
2022/05/09 03:02:19;;;;;;;7.77;6.97;;;11.40;99.90;;;;;;5054628;28;20282;-63
2022/05/09 03:04:45;;;;;;;7.87;7.10;;;11.40;99.90;;;;;;5054622;28;20241;-63
2022/05/09 03:07:13;;;;;;;7.97;7.20;;;11.40;99.90;;;;;;5054626;28;20205;-63
2022/05/09 03:09:42;;;;;;;8.67;7.60;;;11.40;99.90;;;;;;5055245;28;20217;-63
2022/05/09 03:12:10;;;;;;;11.17;9.87;;;11.40;99.90;;;;;;5054429;28;20205;-63
2022/05/09 03:14:37;;;;;;;14.07;10.47;;;11.40;99.90;;;;;;5054807;28;20605;-63
2022/05/09 03:17:05;;;;;;;8.27;7.47;;;11.40;99.90;;;;;;5054819;28;20205;-63
2022/05/09 03:19:33;;;;;;;9.97;8.93;;;11.40;99.90;;;;;;5054887;28;20205;-62
2022/05/09 03:22:00;;;;;;;9.47;8.00;;;11.40;99.90;;;;;;5054230;28;20241;-63
2022/05/09 03:24:27;;;;;;;8.97;7.67;;;11.40;99.90;;;;;;5054424;28;20256;-62
2022/05/09 03:26:54;;;;;;;15.23;10.43;;;11.40;99.90;;;;;;5054342;28;20773;-62
2022/05/09 03:29:24;;;;;;;12.43;10.40;;;11.30;99.90;;;;;;5053356;28;20259;-62
2022/05/09 03:31:52;;;;;;;10.83;8.33;;;11.40;99.90;;;;;;5054025;28;20205;-62
2022/05/09 03:34:20;;;;;;;13.93;11.00;;;11.30;99.90;;;;;;5054020;28;20695;-62
2022/05/09 03:36:48;;;;;;;9.73;8.23;;;11.30;99.90;;;;;;5053997;28;20225;-62
2022/05/09 03:39:15;;;;;;;8.40;7.60;;;11.30;99.90;;;;;;5053888;28;20280;-62
2022/05/09 03:41:41;;;;;;;11.33;8.43;;;11.30;99.90;;;;;;5053848;28;20206;-62
2022/05/09 03:44:08;;;;;;;9.43;8.50;;;11.30;99.90;;;;;;5053983;28;20230;-62
2022/05/09 03:46:35;;;;;;;8.70;7.80;;;11.20;99.90;;;;;;5053918;28;20206;-62
2022/05/09 03:49:02;;;;;;;8.90;8.00;;;11.20;99.90;;;;;;5053935;28;20205;-62
2022/05/09 03:51:29;;;;;;;8.33;7.53;;;11.20;99.90;;;;;;5053512;28;20297;-62
2022/05/09 03:53:57;;;;;;;8.47;7.60;;;11.20;99.90;;;;;;5053728;28;20297;-63
2022/05/09 03:56:23;;;;;;;10.67;7.47;;;11.10;99.90;;;;;;5053770;28;20221;-63
2022/05/09 03:58:50;;;;;;;11.33;7.23;;;11.10;99.90;;;;;;5053882;28;20209;-63
2022/05/09 04:01:17;;;;;;;9.33;7.53;;;11.00;99.90;;;;;;5053494;28;20263;-63
2022/05/09 04:03:43;;;;;;;8.27;7.47;;;11.00;99.90;;;;;;5053589;28;20209;-63
2022/05/09 04:06:10;;;;;;;10.37;8.03;;;11.00;99.90;;;;;;5053492;28;20213;-63
2022/05/09 04:08:37;;;;;;;8.43;7.63;;;11.00;99.90;;;;;;5053642;28;20205;-63
2022/05/09 04:11:05;;;;;;;10.83;8.90;;;11.00;99.90;;;;;;5053580;28;20212;-63
2022/05/09 04:13:31;;;;;;;8.17;7.33;;;11.00;99.90;;;;;;5053455;28;20202;-62
2022/05/09 04:18:44;;;;;;;8.93;6.90;;;11.00;99.90;;;;;;5053421;28;20200;-62
2022/05/09 04:21:13;;;;;;;7.83;7.03;;;11.00;99.90;;;;;;5053321;28;20618;-62
2022/05/09 04:23:40;;;;;;;7.90;7.20;;;11.00;99.90;;;;;;5053325;28;20255;-63
2022/05/09 04:26:09;;;;;;;8.17;7.37;;;10.90;99.90;;;;;;5053671;28;20217;-62
2022/05/09 04:28:35;;;;;;;10.00;7.50;;;10.80;99.90;;;;;;5053508;28;20205;-62
2022/05/09 04:31:02;;;;;;;7.83;7.00;;;10.80;99.90;;;;;;5053207;28;20283;-62
2022/05/09 04:33:29;;;;;;;9.33;7.43;;;10.80;99.90;;;;;;5052748;28;20818;-64
2022/05/09 04:35:57;;;;;;;22.37;14.83;;;10.80;99.90;;;;;;5052992;28;20283;-62
2022/05/09 04:38:25;;;;;;;12.03;9.93;;;10.90;99.90;;;;;;5052989;28;20209;-62
2022/05/09 04:40:54;;;;;;;22.33;18.23;;;11.00;99.90;;;;;;5052825;28;20209;-62
2022/05/09 04:43:24;;;;;;;26.23;22.00;;;11.20;99.90;;;;;;5052525;28;20212;-64
2022/05/09 04:45:51;;;;;;;12.30;10.93;;;11.20;99.90;;;;;;5052599;28;20309;-63
2022/05/09 04:48:19;;;;;;;8.70;7.70;;;11.40;99.90;;;;;;5052706;28;20670;-63
2022/05/09 04:50:45;;;;;;;116.50;66.90;;;11.50;99.90;;;;;;5052941;28;20259;-63
2022/05/09 04:53:12;;;;;;;17.40;14.90;;;11.60;99.90;;;;;;5052553;28;20274;-63
2022/05/09 04:55:40;;;;;;;104.30;69.43;;;11.70;99.90;;;;;;5052277;28;20230;-63
2022/05/09 04:58:07;;;;;;;160.90;125.70;;;11.70;99.90;;;;;;5052945;28;20681;-63
2022/05/09 05:00:36;;;;;;;299.17;213.00;;;11.70;99.90;;;;;;5052389;28;20220;-62
2022/05/09 05:03:03;;;;;;;11.43;9.27;;;11.70;99.90;;;;;;5052245;28;20209;-63
2022/05/09 05:05:29;;;;;;;13.97;12.70;;;11.80;99.90;;;;;;5052062;28;20229;-62
2022/05/09 05:07:56;;;;;;;9.13;7.50;;;11.90;99.90;;;;;;5052321;28;20205;-62
2022/05/09 05:10:23;;;;;;;8.40;7.47;;;12.00;99.90;;;;;;5052178;28;20209;-62
2022/05/09 05:12:50;;;;;;;7.80;7.10;;;12.20;99.90;;;;;;5051801;28;20216;-64
2022/05/09 05:15:17;;;;;;;7.70;6.90;;;12.40;99.90;;;;;;5051873;28;20705;-63
2022/05/09 05:17:45;;;;;;;7.90;7.10;;;12.50;99.90;;;;;;5051978;28;20263;-62
2022/05/09 05:20:15;;;;;;;8.87;8.13;;;12.60;99.90;;;;;;5051928;28;20259;-62
2022/05/09 05:22:43;;;;;;;8.00;6.70;;;12.80;99.90;;;;;;5052248;28;20491;-62
2022/05/09 05:25:12;;;;;;;7.80;6.80;;;12.90;99.90;;;;;;5052185;28;20714;-63
2022/05/09 05:27:39;;;;;;;8.37;7.13;;;13.00;99.90;;;;;;5052062;28;20209;-62
2022/05/09 05:30:08;;;;;;;8.03;6.90;;;13.20;99.90;;;;;;5052153;28;20210;-62
2022/05/09 05:32:37;;;;;;;7.67;6.97;;;13.40;99.90;;;;;;5051865;28;20224;-63
2022/05/09 05:35:06;;;;;;;7.73;7.03;;;13.60;99.90;;;;;;5051888;28;20239;-62
2022/05/09 05:37:33;;;;;;;7.33;6.63;;;14.10;99.90;;;;;;5051811;28;20347;-62
2022/05/09 05:40:00;;;;;;;7.10;6.40;;;15.70;99.90;;;;;;5052153;28;20210;-62
2022/05/09 05:42:28;;;;;;;8.03;6.33;;;17.80;99.90;;;;;;5051978;28;20625;-62
2022/05/09 05:44:55;;;;;;;6.28;5.10;;;20.00;99.90;;;;;;5051974;28;20222;-63
2022/05/09 05:47:23;;;;;;;5.80;5.30;;;22.00;99.90;;;;;;5052002;28;20259;-63
2022/05/09 05:49:50;;;;;;;5.55;5.00;;;23.60;99.90;;;;;;5052060;28;20731;-63
2022/05/09 05:52:18;;;;;;;6.63;5.28;;;24.80;99.90;;;;;;5051383;28;20586;-63
2022/05/09 05:54:46;;;;;;;7.20;5.10;;;25.60;99.90;;;;;;5052149;28;20222;-63
2022/05/09 05:57:19;;;;;;;10.40;4.97;;;26.50;96.00;;;;;;5051809;28;20279;-62
2022/05/09 05:59:53;;;;;;;5.40;4.85;;;27.00;94.70;;;;;;5051718;28;20205;-62
2022/05/09 06:02:20;;;;;;;8.00;5.30;;;27.80;92.60;;;;;;5051442;28;20208;-62
2022/05/09 06:04:47;;;;;;;7.07;5.38;;;28.80;91.00;;;;;;5051295;28;20240;-62
2022/05/09 06:07:15;;;;;;;5.55;4.70;;;29.80;83.50;;;;;;5051734;28;20228;-61
2022/05/09 06:09:44;;;;;;;5.70;5.20;;;30.00;79.70;;;;;;5051877;28;20201;-62
2022/05/09 06:12:12;;;;;;;5.47;4.97;;;29.60;80.50;;;;;;5051596;28;20211;-60
2022/05/09 06:14:39;;;;;;;5.85;5.15;;;30.00;80.10;;;;;;5051592;28;20739;-61
2022/05/09 06:17:06;;;;;;;5.57;5.07;;;30.80;75.50;;;;;;5051452;28;20271;-61
2022/05/09 06:19:33;;;;;;;7.13;4.50;;;31.20;74.00;;;;;;5051224;28;20210;-60
2022/05/09 06:22:03;;;;;;;7.15;4.57;;;31.80;71.30;;;;;;5051180;28;20669;-60
2022/05/09 06:24:30;;;;;;;4.90;4.43;;;32.30;68.30;;;;;;5051971;28;20607;-60
2022/05/09 06:26:58;;;;;;;4.97;4.47;;;32.80;67.10;;;;;;5051452;28;20206;-60
2022/05/09 06:29:25;;;;;;;7.25;5.00;;;33.40;63.00;;;;;;5051473;28;20206;-60
2022/05/09 06:31:52;;;;;;;6.03;4.53;;;33.80;62.60;;;;;;5051175;28;20217;-61
2022/05/09 06:34:18;;;;;;;4.90;4.30;;;33.60;62.00;;;;;;5051248;28;20236;-62
2022/05/09 06:36:45;;;;;;;6.90;4.43;;;33.70;61.30;;;;;;5051370;28;20228;-62
2022/05/09 06:39:12;;;;;;;7.47;4.55;;;34.20;60.00;;;;;;5051329;28;20209;-62
2022/05/09 06:41:39;;;;;;;5.43;4.30;;;35.10;58.00;;;;;;5051121;28;20208;-61
2022/05/09 06:44:09;;;;;;;4.50;4.10;;;35.60;55.30;;;;;;5051272;28;20605;-61
2022/05/09 06:46:36;;;;;;;5.10;4.60;;;34.40;56.50;;;;;;5050873;28;20208;-61
2022/05/09 06:49:03;;;;;;;6.03;4.78;;;33.10;58.20;;;;;;5051227;28;20216;-62
2022/05/09 06:51:29;;;;;;;5.88;3.80;;;32.10;59.70;;;;;;5051416;28;20201;-61
2022/05/09 06:53:56;;;;;;;4.40;4.00;;;31.70;61.20;;;;;;5050987;28;20206;-61
2022/05/09 06:56:23;;;;;;;4.75;4.07;;;32.00;60.60;;;;;;5050886;28;20279;-61
2022/05/09 06:58:50;;;;;;;7.53;4.70;;;32.30;59.80;;;;;;5051107;28;20232;-61
2022/05/09 07:01:19;;;;;;;4.55;4.15;;;32.40;58.80;;;;;;5050769;28;20209;-62
2022/05/09 07:03:47;;;;;;;5.07;4.32;;;32.40;59.60;;;;;;5051168;28;20247;-62
2022/05/09 07:06:15;;;;;;;4.75;4.25;;;33.10;57.80;;;;;;5054937;28;20197;-62
2022/05/09 07:08:42;;;;;;;5.70;4.88;;;32.40;58.50;;;;;;5054567;28;20217;-62
2022/05/09 07:11:11;;;;;;;4.68;4.28;;;31.50;61.10;;;;;;5054519;28;20586;-62
2022/05/09 07:13:37;;;;;;;7.28;4.25;;;32.50;59.80;;;;;;5054215;28;20224;-62
2022/05/09 07:16:05;;;;;;;8.07;4.05;;;33.90;56.80;;;;;;5054216;28;20222;-59
2022/05/09 07:18:33;;;;;;;4.85;4.38;;;34.60;55.90;;;;;;5054343;28;20209;-56
2022/05/09 07:21:00;;;;;;;4.60;4.05;;;35.70;54.40;;;;;;5054437;28;20221;-58
2022/05/09 07:23:27;;;;;;;4.97;4.55;;;35.80;52.30;;;;;;5054195;28;20255;-56
2022/05/09 07:25:55;;;;;;;4.97;4.47;;;34.20;54.80;;;;;;5053909;28;20272;-57
2022/05/09 07:28:22;;;;;;;4.63;4.10;;;32.90;56.60;;;;;;5054019;28;20209;-56
2022/05/09 07:30:50;;;;;;;5.93;5.25;;;32.00;58.20;;;;;;5054322;28;20202;-57
2022/05/09 07:33:19;;;;;;;4.40;4.00;;;32.10;58.30;;;;;;5053910;28;20213;-56
2022/05/09 07:35:47;;;;;;;4.68;4.00;;;33.10;57.10;;;;;;5054160;28;20232;-57
2022/05/09 07:38:14;;;;;;;5.88;3.97;;;34.60;55.10;;;;;;5054022;28;20221;-56
2022/05/09 07:40:43;;;;;;;6.00;3.85;;;35.90;52.80;;;;;;5053911;28;20263;-57
2022/05/09 07:43:12;;;;;;;4.13;3.75;;;36.70;51.50;;;;;;5054040;28;20213;-57
2022/05/09 07:45:40;;;;;;;4.78;3.78;;;37.70;50.30;;;;;;5053713;28;20283;-56
2022/05/09 07:48:08;;;;;;;4.03;3.50;;;38.60;49.10;;;;;;5053928;28;20259;-56
2022/05/09 07:50:35;;;;;;;4.47;3.55;;;39.10;47.60;;;;;;5053850;28;20233;-56
2022/05/09 07:53:07;;;;;;;4.13;3.60;;;39.50;46.50;;;;;;5053531;28;20240;-57
2022/05/09 07:55:34;;;;;;;4.25;3.47;;;39.70;45.80;;;;;;5053447;28;20225;-57
2022/05/09 07:58:00;;;;;;;4.15;3.78;;;40.00;45.00;;;;;;5053778;28;20225;-57
2022/05/09 08:00:27;;;;;;;3.83;3.35;;;40.10;44.40;;;;;;5054021;28;20202;-56
2022/05/09 08:02:54;;;;;;;5.75;3.55;;;40.40;44.10;;;;;;5053734;28;20212;-57
2022/05/09 08:05:21;;;;;;;4.90;3.38;;;40.10;44.00;;;;;;5096136;22;20232;-59
2022/05/09 08:07:49;;;;;;;3.70;3.38;;;37.90;46.60;;;;;;5081404;28;20665;-60
2022/05/09 08:10:17;;;;;;;3.80;3.40;;;37.20;47.50;;;;;;5073499;28;20215;-60
2022/05/09 08:12:44;;;;;;;4.82;4.30;;;37.00;47.70;;;;;;5073011;28;20205;-60
2022/05/09 08:15:14;;;;;;;3.90;3.50;;;37.30;47.40;;;;;;5072902;28;20320;-60
2022/05/09 08:17:40;;;;;;;5.13;3.13;;;38.00;46.40;;;;;;5074762;28;20270;-61
2022/05/09 08:20:09;;;;;;;4.97;3.38;;;38.70;45.60;;;;;;5073708;28;20237;-60
2022/05/09 08:22:36;;;;;;;4.15;3.50;;;39.10;44.90;;;;;;5072850;28;20212;-61
2022/05/09 08:25:04;;;;;;;3.47;2.97;;;39.40;44.60;;;;;;5073143;28;20229;-61
2022/05/09 08:27:33;;;;;;;4.68;3.17;;;39.60;44.10;;;;;;5072997;28;20282;-61
2022/05/09 08:29:59;;;;;;;3.85;3.40;;;39.20;45.20;;;;;;5073020;28;20208;-61
2022/05/09 08:32:28;;;;;;;5.07;3.28;;;38.30;45.20;;;;;;5072919;28;20209;-59
2022/05/09 08:34:55;;;;;;;5.35;3.75;;;36.80;47.00;;;;;;5072673;28;20221;-61
2022/05/09 08:37:23;;;;;;;5.10;3.60;;;35.30;48.60;;;;;;5073090;28;20208;-60
2022/05/09 08:39:50;;;;;;;5.70;3.58;;;34.00;50.50;;;;;;5072847;28;20212;-58
2022/05/09 08:42:22;;;;;;;5.10;3.80;;;32.60;52.40;;;;;;5072642;28;20257;-57
2022/05/09 08:45:17;;;;;;;3.92;3.60;;;31.30;54.30;;;;;;5072632;28;20233;-57
2022/05/09 08:48:35;;;;;;;5.10;3.78;;;30.00;56.50;;;;;;5072579;28;20267;-57
2022/05/09 08:51:10;;;;;;;7.28;4.00;;;28.90;58.90;;;;;;4990860;28;20228;-57
2022/05/09 08:53:39;;;;;;;5.03;4.22;;;27.90;60.50;;;;;;5057125;28;20261;-57
2022/05/09 08:56:11;;;;;;;4.25;3.85;;;26.80;64.00;;;;;;5072456;28;20224;-58
2022/05/09 08:58:42;;;;;;;9.18;6.63;;;26.10;66.40;;;;;;5072304;28;20208;-58
2022/05/09 09:01:19;;;;;;;4.95;4.45;;;25.80;68.30;;;;;;5072367;28;20211;-57
2022/05/09 09:03:53;;;;;;;6.93;4.90;;;25.70;71.10;;;;;;5071929;28;20632;-57
2022/05/09 09:06:36;;;;;;;7.05;4.72;;;25.80;71.70;;;;;;5071780;28;20246;-57
2022/05/09 09:09:14;;;;;;;5.45;4.40;;;25.80;71.60;;;;;;5072396;28;20267;-57
2022/05/09 09:11:50;;;;;;;5.32;4.45;;;25.80;71.90;;;;;;5072283;28;20200;-57
2022/05/09 09:14:25;;;;;;;5.40;4.28;;;25.90;72.30;;;;;;5072051;28;20254;-58
2022/05/09 09:17:11;;;;;;;4.35;3.95;;;26.00;71.80;;;;;;5072361;28;20256;-58
2022/05/09 09:20:10;;;;;;;4.75;4.28;;;26.10;72.00;;;;;;5072225;28;20258;-58
2022/05/09 09:22:56;;;;;;;4.47;4.07;;;26.20;71.60;;;;;;5070945;28;20255;-57
2022/05/09 09:25:31;;;;;;;4.80;4.10;;;26.00;72.40;;;;;;5072275;28;20228;-58
2022/05/09 09:28:02;;;;;;;4.63;4.05;;;25.80;71.60;;;;;;5071427;28;20651;-58
2022/05/09 09:30:30;;;;;;;5.07;3.88;;;25.70;72.30;;;;;;5071944;28;20209;-58
2022/05/09 09:33:04;;;;;;;4.82;4.25;;;25.60;73.90;;;;;;5071704;28;20200;-58
2022/05/09 09:35:41;;;;;;;4.68;4.28;;;25.50;74.60;;;;;;5073465;28;20767;-58
2022/05/09 09:38:15;;;;;;;6.00;4.10;;;25.30;74.30;;;;;;5072694;28;20205;-58
2022/05/09 09:40:43;;;;;;;5.68;4.15;;;25.20;74.40;;;;;;5072198;28;20209;-58
2022/05/09 09:43:10;;;;;;;6.38;4.00;;;25.60;73.80;;;;;;5071649;28;20239;-56
2022/05/09 09:45:40;;;;;;;4.68;3.67;;;25.90;73.10;;;;;;5071594;28;20228;-56
2022/05/09 09:48:14;;;;;;;5.22;3.50;;;26.30;73.10;;;;;;5071546;28;20672;-56
2022/05/09 09:50:56;;;;;;;3.88;3.45;;;26.60;71.20;;;;;;5071981;28;20301;-56
2022/05/09 09:53:39;;;;;;;6.32;4.00;;;26.60;68.60;;;;;;5071510;28;20216;-56
2022/05/09 09:56:12;;;;;;;3.92;3.42;;;26.50;67.10;;;;;;5071389;28;20767;-56
2022/05/09 09:58:40;;;;;;;4.03;3.63;;;26.50;66.50;;;;;;5071739;28;20203;-56
2022/05/09 10:01:12;;;;;;;3.95;3.42;;;26.40;65.90;;;;;;5071823;28;20238;-58
2022/05/09 10:03:42;;;;;;;5.75;3.67;;;26.30;66.90;;;;;;5071261;28;20204;-56
2022/05/09 10:06:18;;;;;;;3.80;3.40;;;26.10;66.20;;;;;;5071360;28;20294;-56
2022/05/09 10:08:46;;;;;;;4.38;3.60;;;26.00;65.70;;;;;;5071229;28;20638;-56
2022/05/09 10:11:22;;;;;;;4.00;3.60;;;25.90;66.20;;;;;;5071491;28;20287;-56
2022/05/09 10:13:51;;;;;;;7.32;3.47;;;25.80;67.00;;;;;;5071299;28;20291;-56
2022/05/09 10:16:26;;;;;;;3.58;3.28;;;25.80;66.20;;;;;;5071421;28;20275;-57
2022/05/09 10:18:55;;;;;;;3.45;3.10;;;25.90;66.90;;;;;;5071831;28;20200;-57
2022/05/09 10:26:58;;;;;;;4.85;3.10;;;25.40;65.90;;;;;;5071226;28;20683;-57
2022/05/09 10:29:28;;;;;;;4.25;3.08;;;25.40;66.90;;;;;;5071262;28;20205;-57
2022/05/09 10:31:59;;;;;;;5.90;3.33;;;25.60;66.00;;;;;;5071472;28;20206;-57
2022/05/09 10:34:34;;;;;;;4.03;3.20;;;25.80;65.60;;;;;;5071328;28;20262;-57
2022/05/09 10:37:10;;;;;;;3.35;2.72;;;25.70;66.20;;;;;;5071263;28;20204;-57
2022/05/09 10:39:43;;;;;;;4.28;3.03;;;25.60;65.90;;;;;;5074500;28;20308;-57
2022/05/09 10:42:10;;;;;;;4.32;3.08;;;25.60;66.10;;;;;;5074601;28;20217;-57
2022/05/09 10:44:44;;;;;;;2.97;2.78;;;25.50;65.90;;;;;;5074820;28;20732;-57
2022/05/09 10:47:23;;;;;;;3.50;2.90;;;25.40;64.60;;;;;;5074644;28;20209;-57
2022/05/09 10:49:57;;;;;;;3.58;2.90;;;25.30;65.40;;;;;;5074631;28;20201;-57
2022/05/09 10:52:41;;;;;;;3.80;3.08;;;25.00;66.80;;;;;;5074252;28;20342;-57
2022/05/09 10:55:16;;;;;;;5.60;3.35;;;25.00;67.70;;;;;;5074741;28;20248;-57
2022/05/09 10:57:47;;;;;;;6.07;3.20;;;25.20;67.00;;;;;;5074545;28;20612;-59
2022/05/09 11:00:19;;;;;;;6.60;3.10;;;25.40;65.80;;;;;;5074737;28;20219;-57
2022/05/09 11:02:57;;;;;;;4.28;3.08;;;25.40;64.10;;;;;;5074274;28;20209;-57
2022/05/09 11:05:28;;;;;;;6.68;3.30;;;25.70;64.30;;;;;;5074282;28;20236;-57
2022/05/09 11:08:02;;;;;;;4.40;2.83;;;25.60;65.40;;;;;;5074509;28;20231;-57
2022/05/09 11:10:38;;;;;;;3.30;3.00;;;25.60;66.10;;;;;;5074681;28;20270;-57
2022/05/09 11:13:16;;;;;;;3.22;2.85;;;25.50;65.00;;;;;;5074027;28;20212;-57
2022/05/09 11:15:55;;;;;;;3.75;3.40;;;25.70;63.10;;;;;;5074609;28;20274;-57
2022/05/09 11:18:32;;;;;;;5.40;3.08;;;26.00;63.30;;;;;;5075343;28;20208;-57
2022/05/09 11:21:09;;;;;;;6.90;2.97;;;26.20;63.00;;;;;;5074955;28;20691;-57
2022/05/09 11:23:46;;;;;;;3.88;3.20;;;26.00;63.30;;;;;;5074086;28;20615;-57
2022/05/09 11:26:21;;;;;;;5.55;3.53;;;25.80;63.20;;;;;;5073973;28;20224;-56
2022/05/09 11:29:35;;;;;;;3.40;3.10;;;25.70;63.10;;;;;;5074320;28;20228;-56
2022/05/09 11:32:17;;;;;;;6.53;3.80;;;25.50;63.80;;;;;;5073511;28;20248;-57
2022/05/09 11:35:08;;;;;;;5.20;3.40;;;25.70;63.50;;;;;;5074163;28;20320;-57
2022/05/09 11:37:44;;;;;;;5.25;3.42;;;26.00;63.40;;;;;;5074202;28;20288;-58
2022/05/09 11:40:26;;;;;;;3.30;2.80;;;26.10;62.30;;;;;;5073890;28;20209;-57
2022/05/09 11:46:02;;;;;;;6.10;2.80;;;26.10;62.00;;;;;;5073759;28;20309;-58
2022/05/09 11:48:40;;;;;;;4.15;2.90;;;26.00;60.50;;;;;;5073850;28;20227;-58
2022/05/09 11:51:18;;;;;;;4.57;3.28;;;25.90;62.10;;;;;;5073113;28;20216;-57
2022/05/09 11:53:50;;;;;;;4.05;3.22;;;25.90;63.10;;;;;;5073778;28;20208;-56
2022/05/09 11:56:18;;;;;;;3.92;3.22;;;25.90;63.30;;;;;;5073644;28;20746;-57
2022/05/09 11:58:45;;;;;;;4.30;3.08;;;25.80;63.60;;;;;;5073875;28;20251;-58
2022/05/09 12:01:13;;;;;;;3.50;3.03;;;25.70;63.40;;;;;;5073622;28;20212;-57
2022/05/09 12:04:03;;;;;;;7.55;3.65;;;25.70;62.60;;;;;;5073404;28;20680;-57
2022/05/09 12:06:39;;;;;;;5.47;3.22;;;25.60;63.90;;;;;;5073534;28;20295;-57
2022/05/09 12:09:11;;;;;;;4.03;3.20;;;25.80;63.50;;;;;;5073373;28;20228;-57
2022/05/09 12:11:50;;;;;;;3.95;3.13;;;26.00;62.20;;;;;;5073482;28;20251;-58
2022/05/09 12:14:41;;;;;;;3.13;2.72;;;26.20;60.70;;;;;;5073316;28;20204;-57
2022/05/09 12:17:32;;;;;;;5.85;2.80;;;26.30;60.00;;;;;;5073353;28;20216;-58
2022/05/09 12:19:59;;;;;;;5.53;3.58;;;26.40;59.90;;;;;;5073135;28;20295;-58
2022/05/09 12:22:49;;;;;;;7.38;3.55;;;26.50;61.80;;;;;;5073270;28;20630;-58
2022/05/09 12:25:49;;;;;;;3.65;2.80;;;26.40;62.40;;;;;;5073139;28;20712;-58
2022/05/09 12:28:25;;;;;;;4.13;2.90;;;26.40;61.50;;;;;;5056020;28;20247;-58
2022/05/09 12:30:54;;;;;;;3.03;2.72;;;26.50;61.90;;;;;;5073366;28;20288;-57
2022/05/09 12:33:29;;;;;;;4.25;2.85;;;26.40;61.70;;;;;;5072859;28;20201;-57
2022/05/09 12:35:59;;;;;;;6.47;4.05;;;26.30;61.60;;;;;;5072701;28;20225;-57
2022/05/09 12:38:29;;;;;;;6.53;4.05;;;26.30;62.30;;;;;;5072694;28;20208;-57
2022/05/09 12:41:03;;;;;;;5.10;3.55;;;26.40;62.20;;;;;;5072522;28;20201;-57
2022/05/09 12:43:34;;;;;;;13.85;5.30;;;26.50;62.00;;;;;;5072573;28;20200;-58
2022/05/09 12:46:02;;;;;;;6.72;2.90;;;26.60;61.10;;;;;;5072810;28;20335;-58
2022/05/09 12:48:29;;;;;;;10.23;4.18;;;26.90;61.20;;;;;;5072507;28;20243;-58
2022/05/09 12:51:04;;;;;;;4.70;2.95;;;27.10;60.60;;;;;;5072623;28;20690;-57
2022/05/09 12:53:33;;;;;;;6.45;4.10;;;27.50;59.20;;;;;;5072414;28;20511;-57
2022/05/09 12:56:08;;;;;;;4.57;2.90;;;27.90;58.70;;;;;;5072718;28;20224;-57
2022/05/09 12:58:38;;;;;;;4.47;3.00;;;27.90;57.90;;;;;;5072616;28;20573;-58
2022/05/09 13:01:09;;;;;;;3.90;2.60;;;27.80;58.30;;;;;;5072272;28;20204;-58
2022/05/09 13:03:47;;;;;;;4.57;3.10;;;27.90;58.80;;;;;;5072532;28;20201;-57
2022/05/09 13:06:17;;;;;;;6.15;2.90;;;28.00;58.60;;;;;;5072061;28;20240;-57
2022/05/09 13:08:44;;;;;;;5.28;2.80;;;28.20;58.10;;;;;;5072264;28;20224;-57
2022/05/09 13:11:15;;;;;;;4.05;2.67;;;28.40;57.10;;;;;;5072189;28;20294;-57
2022/05/09 13:13:53;;;;;;;4.45;2.78;;;28.70;57.00;;;;;;5071861;28;20681;-57
2022/05/09 13:16:23;;;;;;;7.28;3.28;;;29.10;56.30;;;;;;5072226;28;20264;-58
2022/05/09 13:18:50;;;;;;;3.47;2.80;;;29.20;56.40;;;;;;5072442;28;20255;-57